sensor_id;sensor_type;location;lat;lon;timestamp;P1;durP1;ratioP1;P2;durP2;ratioP2
80653;SDS011;70020;45.524;10.240;2023-05-07T18:47:54;10.43;;;7.00;;
80653;SDS011;70020;45.524;10.240;2023-05-07T18:50:20;8.75;;;7.35;;
80653;SDS011;70020;45.524;10.240;2023-05-07T18:52:46;10.32;;;7.22;;
80653;SDS011;70020;45.524;10.240;2023-05-07T18:55:11;7.80;;;6.60;;
80653;SDS011;70020;45.524;10.240;2023-05-07T18:57:37;11.00;;;6.90;;
80653;SDS011;70020;45.524;10.240;2023-05-07T19:00:03;8.80;;;6.00;;
80653;SDS011;70020;45.524;10.240;2023-05-07T19:02:30;7.90;;;6.53;;
80653;SDS011;70020;45.524;10.240;2023-05-07T19:04:56;8.35;;;6.63;;
80653;SDS011;70020;45.524;10.240;2023-05-07T19:07:22;10.18;;;7.47;;
80653;SDS011;70020;45.524;10.240;2023-05-07T19:09:48;11.98;;;6.72;;
80653;SDS011;70020;45.524;10.240;2023-05-07T19:12:14;10.55;;;7.57;;
80653;SDS011;70020;45.524;10.240;2023-05-07T19:14:40;10.27;;;7.20;;
80653;SDS011;70020;45.524;10.240;2023-05-07T19:17:06;11.60;;;8.10;;
80653;SDS011;70020;45.524;10.240;2023-05-07T19:19:32;17.95;;;8.75;;
80653;SDS011;70020;45.524;10.240;2023-05-07T19:21:57;14.23;;;9.38;;
80653;SDS011;70020;45.524;10.240;2023-05-07T19:24:23;14.30;;;10.27;;
80653;SDS011;70020;45.524;10.240;2023-05-07T19:26:49;17.00;;;9.32;;
80653;SDS011;70020;45.524;10.240;2023-05-07T19:29:19;16.80;;;10.25;;
80653;SDS011;70020;45.524;10.240;2023-05-07T19:34:10;12.70;;;10.40;;
80653;SDS011;70020;45.524;10.240;2023-05-07T19:36:37;15.00;;;11.52;;
80653;SDS011;70020;45.524;10.240;2023-05-07T19:39:04;15.25;;;10.48;;
80653;SDS011;70020;45.524;10.240;2023-05-07T19:41:30;14.10;;;9.90;;
80653;SDS011;70020;45.524;10.240;2023-05-07T19:46:21;13.45;;;9.45;;
80653;SDS011;70020;45.524;10.240;2023-05-07T19:48:48;15.35;;;9.73;;
80653;SDS011;70020;45.524;10.240;2023-05-07T19:53:38;13.80;;;10.07;;
80653;SDS011;70020;45.524;10.240;2023-05-07T19:58:31;11.50;;;9.23;;
80653;SDS011;70020;45.524;10.240;2023-05-07T20:03:21;10.97;;;7.87;;
80653;SDS011;70020;45.524;10.240;2023-05-07T20:08:13;9.52;;;6.90;;
80653;SDS011;70020;45.524;10.240;2023-05-07T20:10:39;15.68;;;8.80;;
80653;SDS011;70020;45.524;10.240;2023-05-07T20:13:05;12.57;;;8.48;;
80653;SDS011;70020;45.524;10.240;2023-05-07T20:17:56;18.55;;;10.05;;
80653;SDS011;70020;45.524;10.240;2023-05-07T20:22:48;15.20;;;8.55;;
80653;SDS011;70020;45.524;10.240;2023-05-07T20:27:40;9.95;;;6.65;;
80653;SDS011;70020;45.524;10.240;2023-05-07T20:30:06;10.55;;;6.40;;
80653;SDS011;70020;45.524;10.240;2023-05-07T20:32:32;11.75;;;6.25;;
80653;SDS011;70020;45.524;10.240;2023-05-07T20:34:58;9.10;;;6.05;;
80653;SDS011;70020;45.524;10.240;2023-05-07T20:37:24;7.47;;;5.13;;
80653;SDS011;70020;45.524;10.240;2023-05-07T20:39:50;8.18;;;6.03;;
80653;SDS011;70020;45.524;10.240;2023-05-07T20:42:16;5.80;;;5.13;;
80653;SDS011;70020;45.524;10.240;2023-05-07T20:44:42;8.00;;;5.43;;
80653;SDS011;70020;45.524;10.240;2023-05-07T20:47:09;8.85;;;5.57;;
80653;SDS011;70020;45.524;10.240;2023-05-07T20:49:35;7.07;;;5.45;;
80653;SDS011;70020;45.524;10.240;2023-05-07T20:52:00;10.60;;;5.97;;
80653;SDS011;70020;45.524;10.240;2023-05-07T20:54:26;7.65;;;6.65;;
80653;SDS011;70020;45.524;10.240;2023-05-07T20:56:52;10.02;;;6.90;;
80653;SDS011;70020;45.524;10.240;2023-05-07T20:59:19;9.32;;;7.13;;
80653;SDS011;70020;45.524;10.240;2023-05-07T21:01:44;9.52;;;7.18;;
80653;SDS011;70020;45.524;10.240;2023-05-07T21:04:10;10.30;;;7.55;;
80653;SDS011;70020;45.524;10.240;2023-05-07T21:06:36;8.35;;;6.80;;
80653;SDS011;70020;45.524;10.240;2023-05-07T21:09:02;10.35;;;7.22;;
80653;SDS011;70020;45.524;10.240;2023-05-07T21:11:27;8.80;;;7.00;;
80653;SDS011;70020;45.524;10.240;2023-05-07T21:13:53;10.77;;;6.90;;
80653;SDS011;70020;45.524;10.240;2023-05-07T21:18:45;9.07;;;6.65;;
80653;SDS011;70020;45.524;10.240;2023-05-07T21:21:11;7.57;;;6.78;;
80653;SDS011;70020;45.524;10.240;2023-05-07T21:23:38;5.40;;;4.65;;
80653;SDS011;70020;45.524;10.240;2023-05-07T21:26:03;6.70;;;5.20;;
80653;SDS011;70020;45.524;10.240;2023-05-07T21:28:29;7.93;;;5.53;;
80653;SDS011;70020;45.524;10.240;2023-05-07T21:30:54;9.70;;;6.87;;
80653;SDS011;70020;45.524;10.240;2023-05-07T21:33:20;7.72;;;6.20;;
80653;SDS011;70020;45.524;10.240;2023-05-07T21:35:46;7.07;;;4.90;;
80653;SDS011;70020;45.524;10.240;2023-05-07T21:38:12;7.63;;;4.90;;
80653;SDS011;70020;45.524;10.240;2023-05-07T21:40:38;4.47;;;3.80;;
80653;SDS011;70020;45.524;10.240;2023-05-07T21:43:04;5.75;;;3.90;;
80653;SDS011;70020;45.524;10.240;2023-05-07T21:45:30;5.15;;;3.97;;
80653;SDS011;70020;45.524;10.240;2023-05-07T21:47:56;7.68;;;4.30;;
80653;SDS011;70020;45.524;10.240;2023-05-07T21:50:28;7.13;;;4.97;;
80653;SDS011;70020;45.524;10.240;2023-05-07T21:52:54;7.03;;;5.60;;
80653;SDS011;70020;45.524;10.240;2023-05-07T21:55:20;6.45;;;5.00;;
80653;SDS011;70020;45.524;10.240;2023-05-07T21:57:45;6.10;;;4.93;;
80653;SDS011;70020;45.524;10.240;2023-05-07T22:00:11;6.32;;;4.60;;
80653;SDS011;70020;45.524;10.240;2023-05-07T22:02:38;6.28;;;4.93;;
80653;SDS011;70020;45.524;10.240;2023-05-07T22:05:04;6.85;;;5.03;;
80653;SDS011;70020;45.524;10.240;2023-05-07T22:07:30;7.28;;;5.93;;
80653;SDS011;70020;45.524;10.240;2023-05-07T22:09:55;10.48;;;5.53;;
80653;SDS011;70020;45.524;10.240;2023-05-07T22:12:21;6.17;;;5.27;;
80653;SDS011;70020;45.524;10.240;2023-05-07T22:14:47;7.18;;;5.15;;
80653;SDS011;70020;45.524;10.240;2023-05-07T22:17:12;6.72;;;5.50;;
80653;SDS011;70020;45.524;10.240;2023-05-07T22:19:38;6.57;;;5.25;;
80653;SDS011;70020;45.524;10.240;2023-05-07T22:22:05;5.82;;;4.90;;
80653;SDS011;70020;45.524;10.240;2023-05-07T22:24:30;5.50;;;4.88;;
80653;SDS011;70020;45.524;10.240;2023-05-07T22:26:56;7.70;;;5.23;;
80653;SDS011;70020;45.524;10.240;2023-05-07T22:29:22;8.60;;;5.13;;
80653;SDS011;70020;45.524;10.240;2023-05-07T22:31:50;6.53;;;5.03;;
80653;SDS011;70020;45.524;10.240;2023-05-07T22:34:16;7.88;;;5.15;;
80653;SDS011;70020;45.524;10.240;2023-05-07T22:39:07;8.25;;;5.40;;
80653;SDS011;70020;45.524;10.240;2023-05-07T22:41:34;6.53;;;4.78;;
80653;SDS011;70020;45.524;10.240;2023-05-07T22:44:00;7.78;;;5.18;;
80653;SDS011;70020;45.524;10.240;2023-05-07T22:48:52;5.95;;;4.20;;
80653;SDS011;70020;45.524;10.240;2023-05-07T22:51:21;5.50;;;4.47;;
80653;SDS011;70020;45.524;10.240;2023-05-07T22:53:50;5.00;;;4.50;;
80653;SDS011;70020;45.524;10.240;2023-05-07T22:56:15;5.35;;;4.18;;
80653;SDS011;70020;45.524;10.240;2023-05-07T22:58:41;7.03;;;4.43;;
80653;SDS011;70020;45.524;10.240;2023-05-07T23:03:40;12.93;;;5.85;;
80653;SDS011;70020;45.524;10.240;2023-05-07T23:06:06;13.05;;;6.60;;
80653;SDS011;70020;45.524;10.240;2023-05-07T23:08:31;12.88;;;6.75;;
80653;SDS011;70020;45.524;10.240;2023-05-07T23:10:57;11.50;;;6.25;;
80653;SDS011;70020;45.524;10.240;2023-05-07T23:13:23;11.57;;;6.53;;
80653;SDS011;70020;45.524;10.240;2023-05-07T23:15:49;8.90;;;5.88;;
80653;SDS011;70020;45.524;10.240;2023-05-07T23:18:14;13.38;;;6.65;;
80653;SDS011;70020;45.524;10.240;2023-05-07T23:20:40;9.20;;;6.07;;
80653;SDS011;70020;45.524;10.240;2023-05-07T23:23:08;11.73;;;6.45;;
80653;SDS011;70020;45.524;10.240;2023-05-07T23:25:34;6.55;;;4.45;;
80653;SDS011;70020;45.524;10.240;2023-05-07T23:28:00;9.48;;;6.20;;
80653;SDS011;70020;45.524;10.240;2023-05-07T23:30:26;6.75;;;5.28;;
80653;SDS011;70020;45.524;10.240;2023-05-07T23:32:52;7.28;;;4.95;;
80653;SDS011;70020;45.524;10.240;2023-05-07T23:35:18;5.97;;;4.35;;
80653;SDS011;70020;45.524;10.240;2023-05-07T23:37:44;7.18;;;4.50;;
80653;SDS011;70020;45.524;10.240;2023-05-07T23:40:09;8.48;;;4.80;;
80653;SDS011;70020;45.524;10.240;2023-05-07T23:42:35;9.85;;;5.45;;
80653;SDS011;70020;45.524;10.240;2023-05-07T23:45:01;9.50;;;5.30;;
80653;SDS011;70020;45.524;10.240;2023-05-07T23:47:28;6.78;;;4.97;;
80653;SDS011;70020;45.524;10.240;2023-05-07T23:49:54;10.23;;;5.40;;
80653;SDS011;70020;45.524;10.240;2023-05-07T23:52:20;8.05;;;5.40;;
80653;SDS011;70020;45.524;10.240;2023-05-07T23:54:45;9.57;;;4.95;;
80653;SDS011;70020;45.524;10.240;2023-05-07T23:57:11;6.13;;;4.18;;
80653;SDS011;70020;45.524;10.240;2023-05-07T23:59:36;5.80;;;3.90;;
